createdAt,value
2023-03-06T00:01:43.432Z,4.7
2023-03-06T00:04:45.386Z,5.1
2023-03-06T00:07:47.354Z,4.7
2023-03-06T00:10:49.304Z,4.5
2023-03-06T00:13:51.278Z,4.2
2023-03-06T00:16:53.222Z,4.7
2023-03-06T00:19:55.186Z,4.6
2023-03-06T00:22:57.163Z,4.4
2023-03-06T00:25:59.121Z,3.8
2023-03-06T00:29:01.066Z,4.5
2023-03-06T00:32:03.032Z,4.3
2023-03-06T00:35:04.988Z,3.9
2023-03-06T00:38:06.946Z,4.3
2023-03-06T00:41:08.898Z,3.8
2023-03-06T00:44:10.860Z,3.5
2023-03-06T00:47:12.842Z,4.2
2023-03-06T00:50:14.832Z,4.3
2023-03-06T00:53:16.764Z,4.1
2023-03-06T00:56:19.925Z,4.2
2023-03-06T00:59:20.713Z,4.2
2023-03-06T01:02:22.733Z,4.7
2023-03-06T01:05:24.613Z,4.2
2023-03-06T01:08:26.560Z,3.8
2023-03-06T01:11:28.533Z,3.8
2023-03-06T01:14:30.491Z,4.4
2023-03-06T01:17:32.473Z,4
2023-03-06T01:20:34.425Z,3.8
2023-03-06T01:23:36.384Z,3.8
2023-03-06T01:26:38.358Z,4.1
2023-03-06T01:29:40.317Z,4.1
2023-03-06T01:32:42.276Z,3.8
2023-03-06T01:35:44.248Z,3.3
2023-03-06T01:38:46.171Z,4.3
2023-03-06T01:41:48.136Z,4.4
2023-03-06T01:44:50.106Z,4.2
2023-03-06T01:47:52.076Z,4
2023-03-06T01:50:54.029Z,3.8
2023-03-06T01:53:56.058Z,4.1
2023-03-06T01:56:57.965Z,4.2
2023-03-06T01:59:59.928Z,3.8
2023-03-06T02:03:01.893Z,4.2
2023-03-06T02:06:03.857Z,3.9
2023-03-06T02:09:05.817Z,4.1
2023-03-06T02:12:07.776Z,4.2
2023-03-06T02:15:09.751Z,3.9
2023-03-06T02:18:11.760Z,4.4
2023-03-06T02:21:13.718Z,4.3
2023-03-06T02:24:15.680Z,3.9
2023-03-06T02:27:17.659Z,4.8
2023-03-06T02:30:19.592Z,4.9
2023-03-06T02:33:21.573Z,4.6
2023-03-06T02:36:23.514Z,4.8
2023-03-06T02:39:25.491Z,4.6
2023-03-06T02:42:27.469Z,4.8
2023-03-06T02:45:29.429Z,4.8
2023-03-06T02:48:31.394Z,4.7
2023-03-06T02:51:33.337Z,4.8
2023-03-06T02:54:35.323Z,5.4
2023-03-06T02:57:37.266Z,5.4
2023-03-06T03:00:40.150Z,5.3
2023-03-06T03:03:41.212Z,5.3
2023-03-06T03:06:43.151Z,4.9
2023-03-06T03:09:45.127Z,4.7
2023-03-06T03:12:47.083Z,4.5
2023-03-06T03:15:49.073Z,4.9
2023-03-06T03:18:51.088Z,4
2023-03-06T03:21:52.977Z,4.4
2023-03-06T03:24:55.010Z,4.3
2023-03-06T03:27:56.915Z,4.9
2023-03-06T03:30:58.860Z,4.4
2023-03-06T03:34:00.855Z,4.6
2023-03-06T03:37:02.787Z,4.9
2023-03-06T03:40:04.748Z,4.8
2023-03-06T03:43:06.698Z,4.3
2023-03-06T03:46:08.762Z,4.6
2023-03-06T03:49:10.825Z,3.9
2023-03-06T03:52:12.599Z,4.2
2023-03-06T03:55:14.556Z,4.4
2023-03-06T03:58:16.498Z,4.3
2023-03-06T04:01:18.458Z,5
2023-03-06T04:04:20.456Z,4.1
2023-03-06T04:07:22.391Z,4.2
2023-03-06T04:10:24.352Z,4
2023-03-06T04:13:26.290Z,4.4
2023-03-06T04:16:28.303Z,4.8
2023-03-06T04:19:30.286Z,4.7
2023-03-06T04:22:32.208Z,4.8
2023-03-06T04:25:34.140Z,4.7
2023-03-06T04:28:36.097Z,3.9
2023-03-06T04:31:38.080Z,4.5
2023-03-06T04:34:40.024Z,5.2
2023-03-06T04:37:41.981Z,4.8
2023-03-06T04:40:44.926Z,4.2
2023-03-06T04:43:45.902Z,5
2023-03-06T04:46:47.874Z,5.1
2023-03-06T04:49:49.841Z,5.2
2023-03-06T04:52:51.784Z,5.1
2023-03-06T04:55:53.741Z,5.1
2023-03-06T04:58:55.719Z,5.5
2023-03-06T05:01:57.687Z,5.7
2023-03-06T05:04:59.657Z,5.4
2023-03-06T05:08:01.618Z,5.6
2023-03-06T05:11:03.595Z,5.7
2023-03-06T05:14:05.539Z,5.8
2023-03-06T05:17:07.499Z,5.7
2023-03-06T05:20:09.485Z,5.9
2023-03-06T05:23:11.425Z,6.2
2023-03-06T05:26:13.441Z,6.2
2023-03-06T05:29:15.379Z,6.6
2023-03-06T05:32:17.358Z,5.5
2023-03-06T05:35:19.347Z,5.6
2023-03-06T05:38:21.276Z,5.5
2023-03-06T05:41:23.435Z,5.4
2023-03-06T05:44:25.184Z,5.5
2023-03-06T05:47:27.171Z,5.5
2023-03-06T05:50:29.114Z,5.3
2023-03-06T05:53:31.072Z,5.6
2023-03-06T05:56:33.032Z,5.5
2023-03-06T05:59:35.003Z,5.3
2023-03-06T06:02:36.982Z,6.3
2023-03-06T06:05:38.938Z,4.9
2023-03-06T06:08:40.896Z,5.1
2023-03-06T06:11:42.836Z,5.6
2023-03-06T06:14:44.837Z,6.2
2023-03-06T06:17:46.805Z,5
2023-03-06T06:20:48.752Z,5.7
2023-03-06T06:23:50.744Z,5.3
2023-03-06T06:26:52.669Z,5.3
2023-03-06T06:29:54.627Z,5.5
2023-03-06T06:32:56.584Z,5.9
2023-03-06T06:35:58.602Z,6.4
2023-03-06T06:39:00.543Z,5.3
2023-03-06T06:42:15.379Z,5.8
2023-03-06T06:45:04.474Z,5.1
2023-03-06T06:48:06.447Z,5.3
2023-03-06T06:51:08.398Z,5
2023-03-06T06:54:10.369Z,6
2023-03-06T06:57:12.320Z,6.5
2023-03-06T07:00:14.290Z,6.9
2023-03-06T07:03:16.582Z,6
2023-03-06T07:06:18.238Z,5.7
2023-03-06T07:09:20.199Z,6.1
2023-03-06T07:12:22.162Z,5.6
2023-03-06T07:15:24.115Z,5.8
2023-03-06T07:18:26.088Z,6.4
2023-03-06T07:21:28.095Z,6.9
2023-03-06T07:24:30.026Z,6.8
2023-03-06T07:27:32.069Z,7.3
2023-03-06T07:30:33.959Z,6.7
2023-03-06T07:33:35.933Z,6.4
2023-03-06T07:36:37.896Z,5.5
2023-03-06T07:39:39.846Z,6.9
2023-03-06T07:42:41.827Z,7.6
2023-03-06T07:45:43.773Z,6.5
2023-03-06T07:48:45.735Z,7.5
2023-03-06T07:51:47.701Z,7.7
2023-03-06T07:54:49.652Z,7.3
2023-03-06T07:57:51.652Z,8.3
2023-03-06T08:00:53.564Z,7.3
2023-03-06T08:03:55.584Z,8.1
2023-03-06T08:06:57.531Z,8.1
2023-03-06T08:09:59.456Z,7.6
2023-03-06T08:13:01.501Z,8.2
2023-03-06T08:16:03.401Z,7.7
2023-03-06T08:19:05.385Z,7.8
2023-03-06T08:22:07.335Z,8
2023-03-06T08:25:09.302Z,7.1
2023-03-06T08:28:11.222Z,8.3
2023-03-06T08:31:13.299Z,7.5
2023-03-06T08:34:15.153Z,7.3
2023-03-06T08:37:17.138Z,6.8
2023-03-06T08:40:19.052Z,7.2
2023-03-06T08:43:21.025Z,6.1
2023-03-06T08:46:22.985Z,6.8
2023-03-06T08:49:24.941Z,6.8
2023-03-06T08:52:27.013Z,7.4
2023-03-06T08:55:28.864Z,7
2023-03-06T08:58:30.879Z,7.1
2023-03-06T09:01:32.828Z,7.4
2023-03-06T09:04:34.726Z,8.2
2023-03-06T09:07:36.676Z,7.4
2023-03-06T09:10:38.689Z,8.7
2023-03-06T09:13:40.627Z,7.9
2023-03-06T09:16:42.609Z,7.4
2023-03-06T09:19:44.560Z,7.9
2023-03-06T09:22:46.534Z,7.1
2023-03-06T09:25:48.486Z,8.8
2023-03-06T09:28:50.462Z,8.6
2023-03-06T09:31:52.420Z,8.8
2023-03-06T09:34:54.382Z,8.2
2023-03-06T09:37:56.365Z,8.6
2023-03-06T09:40:58.330Z,8.2
2023-03-06T09:44:00.276Z,7.3
2023-03-06T09:47:02.249Z,7.5
2023-03-06T09:50:04.231Z,8.4
2023-03-06T09:53:06.198Z,7.9
2023-03-06T09:56:08.355Z,7.9
2023-03-06T09:59:10.100Z,8.1
2023-03-06T10:02:12.149Z,7.4
2023-03-06T10:05:14.095Z,7.4
2023-03-06T10:08:15.992Z,7.3
2023-03-06T10:11:17.967Z,8
2023-03-06T10:14:19.924Z,6.6
2023-03-06T10:17:21.899Z,6.6
2023-03-06T10:20:23.852Z,7.6
2023-03-06T10:23:25.795Z,8.6
2023-03-06T10:26:29.117Z,7.7
2023-03-06T10:29:29.749Z,8
2023-03-06T10:32:42.796Z,8
2023-03-06T10:35:33.742Z,8.6
2023-03-06T10:38:35.688Z,8
2023-03-06T10:41:37.600Z,7.9
2023-03-06T10:44:39.586Z,9
2023-03-06T10:47:41.542Z,9
2023-03-06T10:50:43.493Z,8.4
2023-03-06T10:53:45.462Z,7.9
2023-03-06T10:56:47.414Z,8.4
2023-03-06T10:59:49.393Z,8.5
2023-03-06T11:02:51.336Z,8
2023-03-06T11:05:53.294Z,8.3
2023-03-06T11:08:55.254Z,8
2023-03-06T11:11:57.206Z,7.7
2023-03-06T11:14:59.158Z,11.3
2023-03-06T11:18:01.145Z,9.5
2023-03-06T11:21:03.066Z,8.6
2023-03-06T11:24:05.057Z,7.4
2023-03-06T11:27:07.023Z,8.7
2023-03-06T11:30:08.970Z,7.4
2023-03-06T11:33:10.923Z,7.6
2023-03-06T11:36:12.877Z,7.2
2023-03-06T11:39:15.602Z,7.3
2023-03-06T11:42:16.803Z,7
2023-03-06T11:45:18.752Z,7.5
2023-03-06T11:48:20.709Z,7.4
2023-03-06T11:51:22.698Z,6.9
2023-03-06T11:54:24.631Z,6.9
2023-03-06T11:57:26.602Z,5.8
2023-03-06T12:00:28.579Z,6.3
2023-03-06T12:03:30.548Z,5.8
2023-03-06T12:06:32.509Z,6.7
2023-03-06T12:09:34.463Z,6.2
2023-03-06T12:12:36.432Z,6.7
2023-03-06T12:15:38.419Z,6.4
2023-03-06T12:18:40.361Z,6.8
2023-03-06T12:21:42.320Z,7
2023-03-06T12:24:44.298Z,6.2
2023-03-06T12:27:46.257Z,5.8
2023-03-06T12:30:48.248Z,6
2023-03-06T12:33:50.185Z,5.5
2023-03-06T12:36:52.149Z,6.3
2023-03-06T12:39:54.160Z,5.6
2023-03-06T12:42:56.092Z,5.5
2023-03-06T12:45:58.059Z,5.6
2023-03-06T12:49:00.005Z,4.8
2023-03-06T12:52:02.006Z,5.6
2023-03-06T12:55:03.931Z,6
2023-03-06T12:58:05.910Z,5
2023-03-06T13:01:07.915Z,5.5
2023-03-06T13:04:09.828Z,5.8
2023-03-06T13:07:11.826Z,6
2023-03-06T13:10:13.797Z,5.5
2023-03-06T13:13:15.692Z,5.6
2023-03-06T13:16:17.684Z,5.2
2023-03-06T13:19:19.644Z,5.4
2023-03-06T13:22:21.575Z,5.2
2023-03-06T13:25:23.547Z,4.8
2023-03-06T13:28:25.531Z,5.6
2023-03-06T13:31:28.167Z,5.1
2023-03-06T13:34:29.469Z,6.2
2023-03-06T13:37:31.443Z,6
2023-03-06T13:40:33.423Z,5.5
2023-03-06T13:43:35.386Z,6.7
2023-03-06T13:46:37.439Z,5.8
2023-03-06T13:49:39.282Z,6.4
2023-03-06T13:52:41.416Z,6.5
2023-03-06T13:55:43.212Z,6.6
2023-03-06T13:58:45.160Z,5.9
2023-03-06T14:01:47.186Z,6.3
2023-03-06T14:04:49.104Z,6.2
2023-03-06T14:07:51.054Z,6.2
2023-03-06T14:10:53.026Z,7.6
2023-03-06T14:13:54.973Z,6.4
2023-03-06T14:16:56.949Z,6.9
2023-03-06T14:19:58.901Z,6.8
2023-03-06T14:23:00.854Z,6.6
2023-03-06T14:26:02.814Z,6.4
2023-03-06T14:29:04.753Z,6.3
2023-03-06T14:32:06.769Z,6.3
2023-03-06T14:35:08.720Z,5.5
2023-03-06T14:38:10.725Z,5.4
2023-03-06T14:41:13.851Z,5.9
2023-03-06T14:44:14.648Z,6.3
2023-03-06T14:47:16.627Z,6.2
2023-03-06T14:50:18.580Z,5.6
2023-03-06T14:53:20.564Z,6.5
2023-03-06T14:56:22.771Z,6.6
2023-03-06T14:59:24.477Z,6
2023-03-06T15:02:26.526Z,6.7
2023-03-06T15:05:28.448Z,5.7
2023-03-06T15:08:30.411Z,6.6
2023-03-06T15:11:32.364Z,6.4
2023-03-06T15:14:34.348Z,7.2
2023-03-06T15:17:36.312Z,6.2
2023-03-06T15:20:38.272Z,7
2023-03-06T15:23:40.232Z,7.3
2023-03-06T15:26:42.215Z,7.1
2023-03-06T15:29:44.163Z,6.5
2023-03-06T15:32:46.123Z,6.4
2023-03-06T15:35:48.164Z,6.2
2023-03-06T15:38:50.073Z,6.7
2023-03-06T15:41:52.035Z,6.9
2023-03-06T15:44:54.020Z,7
2023-03-06T15:47:55.956Z,6.6
2023-03-06T15:50:57.969Z,6.2
2023-03-06T15:54:10.021Z,7.7
2023-03-06T15:57:01.849Z,6.9
2023-03-06T16:00:03.897Z,6.6
2023-03-06T16:03:05.800Z,6.6
2023-03-06T16:06:07.774Z,6.6
2023-03-06T16:09:09.728Z,6.1
2023-03-06T16:12:11.735Z,6.1
2023-03-06T16:15:13.661Z,6.8
2023-03-06T16:18:15.664Z,6
2023-03-06T16:21:17.588Z,6.8
2023-03-06T16:24:19.578Z,6.5
2023-03-06T16:27:21.539Z,6
2023-03-06T16:30:23.460Z,6.6
2023-03-06T16:33:25.438Z,7.3
2023-03-06T16:36:27.389Z,7.1
2023-03-06T16:39:29.328Z,7
2023-03-06T16:42:31.287Z,7
2023-03-06T16:45:33.249Z,6.5
2023-03-06T16:48:35.259Z,6.5
2023-03-06T16:51:37.337Z,6.5
2023-03-06T16:54:39.180Z,7.1
2023-03-06T16:57:41.148Z,6.2
2023-03-06T17:00:43.109Z,6.8
2023-03-06T17:03:45.046Z,7.1
2023-03-06T17:06:46.995Z,6.6
2023-03-06T17:09:48.964Z,6.3
2023-03-06T17:12:50.930Z,6
2023-03-06T17:15:52.953Z,6.4
2023-03-06T17:18:54.878Z,6.1
2023-03-06T17:21:56.823Z,6
2023-03-06T17:24:58.856Z,6.9
2023-03-06T17:28:00.822Z,5.9
2023-03-06T17:31:02.826Z,5.7
2023-03-06T17:34:04.698Z,5.8
2023-03-06T17:37:06.725Z,6
2023-03-06T17:40:08.622Z,5.7
2023-03-06T17:43:10.568Z,5.6
2023-03-06T17:46:12.628Z,5.5
2023-03-06T17:49:14.513Z,5.9
2023-03-06T17:52:16.479Z,5.6
2023-03-06T17:55:18.426Z,5.6
2023-03-06T17:58:20.383Z,4.8
2023-03-06T18:01:22.416Z,5.8
2023-03-06T18:04:24.309Z,5.4
2023-03-06T18:07:29.541Z,5.1
2023-03-06T18:10:31.616Z,5.4
2023-03-06T18:13:33.547Z,5.9
2023-03-06T18:16:35.564Z,5.1
2023-03-06T18:19:37.451Z,6.1
2023-03-06T18:22:39.450Z,6.1
2023-03-06T18:25:41.416Z,5.9
2023-03-06T18:28:43.361Z,6.2
2023-03-06T18:31:45.349Z,5.1
2023-03-06T18:34:47.349Z,6.4
2023-03-06T18:37:49.289Z,5.8
2023-03-06T18:40:51.257Z,5.4
2023-03-06T18:43:53.401Z,6.3
2023-03-06T18:46:55.150Z,6.5
2023-03-06T18:49:57.107Z,6.9
2023-03-06T18:52:59.069Z,6.9
2023-03-06T18:56:01.130Z,6.5
2023-03-06T18:59:03.069Z,6.5
2023-03-06T19:02:05.042Z,6.2
2023-03-06T19:05:07.009Z,6.2
2023-03-06T19:08:08.986Z,6.6
2023-03-06T19:11:10.924Z,7
2023-03-06T19:14:12.952Z,6.5
2023-03-06T19:17:14.933Z,7.5
2023-03-06T19:20:16.930Z,6.6
2023-03-06T19:23:18.852Z,7.1
2023-03-06T19:26:20.820Z,6.6
2023-03-06T19:29:22.773Z,7.4
2023-03-06T19:32:24.780Z,6.5
2023-03-06T19:35:26.725Z,7.6
2023-03-06T19:38:28.705Z,8
2023-03-06T19:41:30.650Z,8
2023-03-06T19:44:32.724Z,7.8
2023-03-06T19:47:34.614Z,8.3
2023-03-06T19:50:36.605Z,7.9
2023-03-06T19:53:38.534Z,9
2023-03-06T19:56:40.495Z,8.1
2023-03-06T19:59:42.417Z,8.4
2023-03-06T20:02:44.375Z,8.5
2023-03-06T20:05:46.369Z,7.7
2023-03-06T20:08:48.311Z,7.9
2023-03-06T20:11:50.290Z,8.2
2023-03-06T20:14:52.222Z,7.8
2023-03-06T20:17:55.863Z,8.8
2023-03-06T20:20:56.137Z,8.6
2023-03-06T20:23:58.093Z,9.5
2023-03-06T20:27:00.058Z,8
2023-03-06T20:30:02.221Z,9.2
2023-03-06T20:33:04.073Z,8.4
2023-03-06T20:36:06.049Z,9.1
2023-03-06T20:39:07.949Z,8.4
2023-03-06T20:42:09.960Z,9.6
2023-03-06T20:45:11.925Z,10.2
2023-03-06T20:48:13.846Z,10.4
2023-03-06T20:51:15.861Z,10.1
2023-03-06T20:54:17.805Z,10.1
2023-03-06T20:57:19.782Z,11.8
2023-03-06T21:00:21.724Z,10.8
2023-03-06T21:03:23.698Z,10.3
2023-03-06T21:06:25.722Z,11
2023-03-06T21:09:27.634Z,10
2023-03-06T21:12:29.591Z,10
2023-03-06T21:15:31.555Z,10.3
2023-03-06T21:18:33.502Z,10.2
2023-03-06T21:21:35.492Z,9.5
2023-03-06T21:24:37.442Z,9.6
2023-03-06T21:27:39.400Z,10
2023-03-06T21:30:41.341Z,9.8
2023-03-06T21:33:43.311Z,10
2023-03-06T21:36:45.271Z,9.9
2023-03-06T21:39:47.237Z,10.7
2023-03-06T21:42:49.191Z,10.4
2023-03-06T21:45:51.171Z,11.2
2023-03-06T21:48:53.189Z,10.5
2023-03-06T21:51:55.051Z,10.9
2023-03-06T21:54:56.990Z,10.2
2023-03-06T21:57:58.966Z,11.4
2023-03-06T22:01:01.003Z,11.5
2023-03-06T22:04:02.977Z,11.7
2023-03-06T22:07:04.869Z,10.8
2023-03-06T22:10:06.945Z,11.5
2023-03-06T22:13:08.816Z,9.6
2023-03-06T22:16:10.787Z,11.2
2023-03-06T22:19:12.786Z,10.6
2023-03-06T22:22:14.749Z,11.3
2023-03-06T22:25:16.698Z,10.1
2023-03-06T22:28:18.642Z,9.9
2023-03-06T22:31:20.649Z,9.9
2023-03-06T22:34:22.590Z,11.1
2023-03-06T22:37:24.526Z,12
2023-03-06T22:40:26.519Z,11.8
2023-03-06T22:43:28.463Z,12.5
2023-03-06T22:46:30.446Z,12.6
2023-03-06T22:49:32.397Z,12.1
2023-03-06T22:52:34.347Z,13.3
2023-03-06T22:55:36.357Z,13.7
2023-03-06T22:58:38.290Z,12.4
2023-03-06T23:01:40.298Z,12.3
2023-03-06T23:04:42.308Z,12.5
2023-03-06T23:07:44.201Z,13.1
2023-03-06T23:10:46.149Z,13.3
2023-03-06T23:13:48.134Z,13.7
2023-03-06T23:16:50.108Z,12.1
2023-03-06T23:19:52.053Z,13.1
2023-03-06T23:22:54.025Z,13.2
2023-03-06T23:25:55.986Z,14.4
2023-03-06T23:28:57.966Z,13.8
2023-03-06T23:31:59.928Z,13.9
2023-03-06T23:35:01.878Z,14.8
2023-03-06T23:38:03.854Z,13.9
2023-03-06T23:41:05.844Z,12.2
2023-03-06T23:44:07.788Z,14.8
2023-03-06T23:47:09.775Z,14.9
2023-03-06T23:50:11.696Z,15.1
2023-03-06T23:53:13.668Z,15.1
2023-03-06T23:56:15.624Z,16
2023-03-06T23:59:17.580Z,15.7
